sensor_id;sensor_type;location;lat;lon;timestamp;temperature;humidity
34640;DHT22;22600;48.186;11.526;2023-03-01T00:01:28;21.30;54.00
34640;DHT22;22600;48.186;11.526;2023-03-01T00:03:54;21.30;54.50
34640;DHT22;22600;48.186;11.526;2023-03-01T00:06:21;21.30;54.50
34640;DHT22;22600;48.186;11.526;2023-03-01T00:08:47;21.30;54.10
34640;DHT22;22600;48.186;11.526;2023-03-01T00:11:20;21.30;54.60
34640;DHT22;22600;48.186;11.526;2023-03-01T00:13:48;21.30;54.30
34640;DHT22;22600;48.186;11.526;2023-03-01T00:16:21;21.30;54.20
34640;DHT22;22600;48.186;11.526;2023-03-01T00:18:47;22.50;55.30
34640;DHT22;22600;48.186;11.526;2023-03-01T00:21:13;21.30;54.70
34640;DHT22;22600;48.186;11.526;2023-03-01T00:23:39;21.30;54.70
34640;DHT22;22600;48.186;11.526;2023-03-01T00:26:09;21.30;54.70
34640;DHT22;22600;48.186;11.526;2023-03-01T00:28:35;21.30;54.80
34640;DHT22;22600;48.186;11.526;2023-03-01T00:31:14;21.30;54.80
34640;DHT22;22600;48.186;11.526;2023-03-01T00:33:41;21.30;54.40
34640;DHT22;22600;48.186;11.526;2023-03-01T00:36:07;21.30;54.40
34640;DHT22;22600;48.186;11.526;2023-03-01T00:38:37;21.30;54.90
34640;DHT22;22600;48.186;11.526;2023-03-01T00:41:08;21.30;54.80
34640;DHT22;22600;48.186;11.526;2023-03-01T00:43:33;21.30;54.30
34640;DHT22;22600;48.186;11.526;2023-03-01T00:46:09;21.30;54.50
34640;DHT22;22600;48.186;11.526;2023-03-01T00:48:36;21.30;55.00
34640;DHT22;22600;48.186;11.526;2023-03-01T00:51:12;21.30;54.60
34640;DHT22;22600;48.186;11.526;2023-03-01T00:53:39;20.10;54.00
34640;DHT22;22600;48.186;11.526;2023-03-01T00:56:06;21.30;54.60
34640;DHT22;22600;48.186;11.526;2023-03-01T00:58:33;21.30;55.10
34640;DHT22;22600;48.186;11.526;2023-03-01T01:00:59;21.20;55.00
34640;DHT22;22600;48.186;11.526;2023-03-01T01:03:24;21.30;55.00
34640;DHT22;22600;48.186;11.526;2023-03-01T01:05:54;21.30;55.10
34640;DHT22;22600;48.186;11.526;2023-03-01T01:08:20;21.30;54.70
34640;DHT22;22600;48.186;11.526;2023-03-01T01:10:47;21.30;54.80
34640;DHT22;22600;48.186;11.526;2023-03-01T01:13:13;21.30;55.20
34640;DHT22;22600;48.186;11.526;2023-03-01T01:15:39;21.30;54.80
34640;DHT22;22600;48.186;11.526;2023-03-01T01:18:05;21.30;54.80
34640;DHT22;22600;48.186;11.526;2023-03-01T01:20:32;21.30;54.90
34640;DHT22;22600;48.186;11.526;2023-03-01T01:22:58;21.30;55.40
34640;DHT22;22600;48.186;11.526;2023-03-01T01:25:23;21.20;55.30
34640;DHT22;22600;48.186;11.526;2023-03-01T01:27:50;21.30;55.30
34640;DHT22;22600;48.186;11.526;2023-03-01T01:30:16;21.30;55.30
34640;DHT22;22600;48.186;11.526;2023-03-01T01:32:42;21.30;55.30
34640;DHT22;22600;48.186;11.526;2023-03-01T01:35:08;21.30;54.70
34640;DHT22;22600;48.186;11.526;2023-03-01T01:40:03;21.30;54.60
34640;DHT22;22600;48.186;11.526;2023-03-01T01:42:32;21.20;54.60
34640;DHT22;22600;48.186;11.526;2023-03-01T01:45:30;21.20;54.80
34640;DHT22;22600;48.186;11.526;2023-03-01T01:48:03;21.30;55.40
34640;DHT22;22600;48.186;11.526;2023-03-01T01:50:31;21.20;55.40
34640;DHT22;22600;48.186;11.526;2023-03-01T01:53:08;21.20;55.00
34640;DHT22;22600;48.186;11.526;2023-03-01T01:55:36;21.20;54.90
34640;DHT22;22600;48.186;11.526;2023-03-01T01:58:04;21.20;54.80
34640;DHT22;22600;48.186;11.526;2023-03-01T02:00:31;21.20;54.70
34640;DHT22;22600;48.186;11.526;2023-03-01T02:03:03;21.30;54.60
34640;DHT22;22600;48.186;11.526;2023-03-01T02:08:11;21.20;54.40
34640;DHT22;22600;48.186;11.526;2023-03-01T02:10:37;21.20;54.50
34640;DHT22;22600;48.186;11.526;2023-03-01T02:13:03;21.20;54.90
34640;DHT22;22600;48.186;11.526;2023-03-01T02:15:37;21.30;54.90
34640;DHT22;22600;48.186;11.526;2023-03-01T02:18:04;21.20;55.00
34640;DHT22;22600;48.186;11.526;2023-03-01T02:20:39;21.20;54.50
34640;DHT22;22600;48.186;11.526;2023-03-01T02:23:08;21.20;54.60
34640;DHT22;22600;48.186;11.526;2023-03-01T02:28:17;21.20;55.00
34640;DHT22;22600;48.186;11.526;2023-03-01T02:30:45;21.20;55.00
34640;DHT22;22600;48.186;11.526;2023-03-01T02:33:33;21.20;55.50
34640;DHT22;22600;48.186;11.526;2023-03-01T02:36:06;21.20;55.40
34640;DHT22;22600;48.186;11.526;2023-03-01T02:38:33;21.20;55.30
34640;DHT22;22600;48.186;11.526;2023-03-01T02:40:58;21.20;55.20
34640;DHT22;22600;48.186;11.526;2023-03-01T02:43:29;21.20;55.20
34640;DHT22;22600;48.186;11.526;2023-03-01T02:45:58;21.20;55.30
34640;DHT22;22600;48.186;11.526;2023-03-01T02:48:24;21.20;55.50
34640;DHT22;22600;48.186;11.526;2023-03-01T02:56:01;21.20;54.90
34640;DHT22;22600;48.186;11.526;2023-03-01T02:58:27;21.20;55.40
34640;DHT22;22600;48.186;11.526;2023-03-01T03:00:52;21.20;54.80
34640;DHT22;22600;48.186;11.526;2023-03-01T03:03:20;21.20;54.90
34640;DHT22;22600;48.186;11.526;2023-03-01T03:05:46;21.20;54.70
34640;DHT22;22600;48.186;11.526;2023-03-01T03:08:13;21.20;54.70
34640;DHT22;22600;48.186;11.526;2023-03-01T03:10:40;21.20;54.70
34640;DHT22;22600;48.186;11.526;2023-03-01T03:13:08;21.20;54.90
34640;DHT22;22600;48.186;11.526;2023-03-01T03:15:35;21.20;54.80
34640;DHT22;22600;48.186;11.526;2023-03-01T03:18:02;21.20;54.80
34640;DHT22;22600;48.186;11.526;2023-03-01T03:20:28;21.20;55.30
34640;DHT22;22600;48.186;11.526;2023-03-01T03:22:55;21.20;54.80
34640;DHT22;22600;48.186;11.526;2023-03-01T03:25:22;21.20;55.30
34640;DHT22;22600;48.186;11.526;2023-03-01T03:27:49;21.20;55.50
34640;DHT22;22600;48.186;11.526;2023-03-01T03:30:18;21.20;55.70
34640;DHT22;22600;48.186;11.526;2023-03-01T03:32:45;21.20;55.90
34640;DHT22;22600;48.186;11.526;2023-03-01T03:35:19;21.20;55.50
34640;DHT22;22600;48.186;11.526;2023-03-01T03:37:45;21.20;55.40
34640;DHT22;22600;48.186;11.526;2023-03-01T03:40:39;21.20;55.90
34640;DHT22;22600;48.186;11.526;2023-03-01T03:43:07;21.20;55.90
34640;DHT22;22600;48.186;11.526;2023-03-01T03:45:34;21.20;56.10
34640;DHT22;22600;48.186;11.526;2023-03-01T03:48:01;21.20;56.10
34640;DHT22;22600;48.186;11.526;2023-03-01T03:50:26;21.20;55.50
34640;DHT22;22600;48.186;11.526;2023-03-01T03:52:52;21.20;56.00
34640;DHT22;22600;48.186;11.526;2023-03-01T03:55:18;21.20;55.90
34640;DHT22;22600;48.186;11.526;2023-03-01T03:57:46;21.20;55.90
34640;DHT22;22600;48.186;11.526;2023-03-01T04:00:18;21.20;55.30
34640;DHT22;22600;48.186;11.526;2023-03-01T04:02:45;21.20;55.40
34640;DHT22;22600;48.186;11.526;2023-03-01T04:05:14;21.20;55.90
34640;DHT22;22600;48.186;11.526;2023-03-01T04:07:41;21.20;56.00
34640;DHT22;22600;48.186;11.526;2023-03-01T04:10:12;21.20;55.90
34640;DHT22;22600;48.186;11.526;2023-03-01T04:12:38;21.20;55.10
34640;DHT22;22600;48.186;11.526;2023-03-01T04:15:05;21.20;55.60
34640;DHT22;22600;48.186;11.526;2023-03-01T04:17:47;21.20;55.60
34640;DHT22;22600;48.186;11.526;2023-03-01T04:20:15;21.20;55.20
34640;DHT22;22600;48.186;11.526;2023-03-01T04:22:51;21.20;55.70
34640;DHT22;22600;48.186;11.526;2023-03-01T04:25:16;21.20;55.60
34640;DHT22;22600;48.186;11.526;2023-03-01T04:27:42;21.20;55.30
34640;DHT22;22600;48.186;11.526;2023-03-01T04:30:08;21.20;55.80
34640;DHT22;22600;48.186;11.526;2023-03-01T04:32:34;21.20;55.20
34640;DHT22;22600;48.186;11.526;2023-03-01T04:35:00;21.20;55.30
34640;DHT22;22600;48.186;11.526;2023-03-01T04:37:26;21.20;55.30
34640;DHT22;22600;48.186;11.526;2023-03-01T04:39:52;21.20;55.20
34640;DHT22;22600;48.186;11.526;2023-03-01T04:42:18;21.20;55.70
34640;DHT22;22600;48.186;11.526;2023-03-01T04:44:45;21.20;55.80
34640;DHT22;22600;48.186;11.526;2023-03-01T04:47:11;21.20;56.10
34640;DHT22;22600;48.186;11.526;2023-03-01T04:49:37;21.10;56.20
34640;DHT22;22600;48.186;11.526;2023-03-01T04:52:03;21.20;56.20
34640;DHT22;22600;48.186;11.526;2023-03-01T04:54:33;21.20;56.10
34640;DHT22;22600;48.186;11.526;2023-03-01T04:57:00;21.20;55.30
34640;DHT22;22600;48.186;11.526;2023-03-01T04:59:26;21.20;55.40
34640;DHT22;22600;48.186;11.526;2023-03-01T05:01:53;21.20;55.90
34640;DHT22;22600;48.186;11.526;2023-03-01T05:04:24;21.20;55.80
34640;DHT22;22600;48.186;11.526;2023-03-01T05:06:50;21.20;55.90
34640;DHT22;22600;48.186;11.526;2023-03-01T05:09:16;21.20;55.90
34640;DHT22;22600;48.186;11.526;2023-03-01T05:11:42;21.20;55.90
34640;DHT22;22600;48.186;11.526;2023-03-01T05:14:08;21.10;55.80
34640;DHT22;22600;48.186;11.526;2023-03-01T05:16:35;21.20;56.00
34640;DHT22;22600;48.186;11.526;2023-03-01T05:19:01;21.20;55.70
34640;DHT22;22600;48.186;11.526;2023-03-01T05:21:37;21.20;56.20
34640;DHT22;22600;48.186;11.526;2023-03-01T05:29:15;21.20;56.00
34640;DHT22;22600;48.186;11.526;2023-03-01T05:31:40;21.20;56.40
34640;DHT22;22600;48.186;11.526;2023-03-01T05:34:06;21.10;56.50
34640;DHT22;22600;48.186;11.526;2023-03-01T05:36:31;21.20;56.40
34640;DHT22;22600;48.186;11.526;2023-03-01T05:38:57;21.20;56.10
34640;DHT22;22600;48.186;11.526;2023-03-01T05:41:23;21.10;55.90
34640;DHT22;22600;48.186;11.526;2023-03-01T05:43:49;21.20;56.40
34640;DHT22;22600;48.186;11.526;2023-03-01T05:46:14;21.20;56.00
34640;DHT22;22600;48.186;11.526;2023-03-01T05:48:40;21.20;56.20
34640;DHT22;22600;48.186;11.526;2023-03-01T05:51:06;21.20;56.30
34640;DHT22;22600;48.186;11.526;2023-03-01T05:53:31;21.20;56.40
34640;DHT22;22600;48.186;11.526;2023-03-01T05:55:57;21.20;56.90
34640;DHT22;22600;48.186;11.526;2023-03-01T05:58:23;21.20;56.60
34640;DHT22;22600;48.186;11.526;2023-03-01T06:00:49;21.20;57.10
34640;DHT22;22600;48.186;11.526;2023-03-01T06:03:17;21.20;57.10
34640;DHT22;22600;48.186;11.526;2023-03-01T06:05:43;21.20;57.30
34640;DHT22;22600;48.186;11.526;2023-03-01T06:08:10;21.20;56.60
34640;DHT22;22600;48.186;11.526;2023-03-01T06:10:36;21.20;56.70
34640;DHT22;22600;48.186;11.526;2023-03-01T06:13:02;21.20;57.10
34640;DHT22;22600;48.186;11.526;2023-03-01T06:17:55;21.20;56.60
34640;DHT22;22600;48.186;11.526;2023-03-01T06:20:25;21.20;57.10
34640;DHT22;22600;48.186;11.526;2023-03-01T06:22:52;21.20;56.60
34640;DHT22;22600;48.186;11.526;2023-03-01T06:25:21;21.20;56.60
34640;DHT22;22600;48.186;11.526;2023-03-01T06:27:48;21.20;56.60
34640;DHT22;22600;48.186;11.526;2023-03-01T06:30:16;21.10;56.70
34640;DHT22;22600;48.186;11.526;2023-03-01T06:32:42;21.20;56.80
34640;DHT22;22600;48.186;11.526;2023-03-01T06:35:09;21.20;56.90
34640;DHT22;22600;48.186;11.526;2023-03-01T06:37:35;21.20;57.00
34640;DHT22;22600;48.186;11.526;2023-03-01T06:40:01;21.20;57.40
34640;DHT22;22600;48.186;11.526;2023-03-01T06:42:34;21.20;56.50
34640;DHT22;22600;48.186;11.526;2023-03-01T06:44:59;21.20;56.00
34640;DHT22;22600;48.186;11.526;2023-03-01T06:47:25;21.20;55.40
34640;DHT22;22600;48.186;11.526;2023-03-01T06:49:50;21.20;52.70
34640;DHT22;22600;48.186;11.526;2023-03-01T06:52:16;21.20;53.10
34640;DHT22;22600;48.186;11.526;2023-03-01T06:54:41;21.20;51.70
34640;DHT22;22600;48.186;11.526;2023-03-01T06:57:07;21.20;51.60
34640;DHT22;22600;48.186;11.526;2023-03-01T07:01:58;21.20;51.50
34640;DHT22;22600;48.186;11.526;2023-03-01T07:04:24;21.20;51.50
34640;DHT22;22600;48.186;11.526;2023-03-01T07:09:23;21.20;51.40
34640;DHT22;22600;48.186;11.526;2023-03-01T07:11:49;21.20;51.90
34640;DHT22;22600;48.186;11.526;2023-03-01T07:14:15;21.20;51.40
34640;DHT22;22600;48.186;11.526;2023-03-01T07:16:41;21.20;51.90
34640;DHT22;22600;48.186;11.526;2023-03-01T07:19:07;21.20;51.40
34640;DHT22;22600;48.186;11.526;2023-03-01T07:21:33;21.20;51.80
34640;DHT22;22600;48.186;11.526;2023-03-01T07:23:58;21.20;51.90
34640;DHT22;22600;48.186;11.526;2023-03-01T07:26:24;21.20;51.40
34640;DHT22;22600;48.186;11.526;2023-03-01T07:28:49;21.20;51.80
34640;DHT22;22600;48.186;11.526;2023-03-01T07:31:15;21.20;51.40
34640;DHT22;22600;48.186;11.526;2023-03-01T07:33:40;21.20;51.60
34640;DHT22;22600;48.186;11.526;2023-03-01T07:36:06;21.30;52.10
34640;DHT22;22600;48.186;11.526;2023-03-01T07:38:32;21.20;51.60
34640;DHT22;22600;48.186;11.526;2023-03-01T07:40:59;21.20;51.60
34640;DHT22;22600;48.186;11.526;2023-03-01T07:43:25;21.20;52.10
34640;DHT22;22600;48.186;11.526;2023-03-01T07:45:51;21.20;51.60
34640;DHT22;22600;48.186;11.526;2023-03-01T07:48:17;21.20;51.70
34640;DHT22;22600;48.186;11.526;2023-03-01T07:50:42;21.20;52.10
34640;DHT22;22600;48.186;11.526;2023-03-01T07:53:09;21.20;51.60
34640;DHT22;22600;48.186;11.526;2023-03-01T07:55:35;21.20;52.00
34640;DHT22;22600;48.186;11.526;2023-03-01T07:58:01;21.20;52.00
34640;DHT22;22600;48.186;11.526;2023-03-01T08:00:26;21.20;51.90
34640;DHT22;22600;48.186;11.526;2023-03-01T08:02:52;21.30;51.90
34640;DHT22;22600;48.186;11.526;2023-03-01T08:05:18;21.30;51.90
34640;DHT22;22600;48.186;11.526;2023-03-01T08:07:43;21.20;51.30
34640;DHT22;22600;48.186;11.526;2023-03-01T08:10:09;21.20;51.30
34640;DHT22;22600;48.186;11.526;2023-03-01T08:12:35;21.20;51.80
34640;DHT22;22600;48.186;11.526;2023-03-01T08:15:01;21.30;51.80
34640;DHT22;22600;48.186;11.526;2023-03-01T08:17:26;21.20;51.70
34640;DHT22;22600;48.186;11.526;2023-03-01T08:19:52;21.20;51.70
34640;DHT22;22600;48.186;11.526;2023-03-01T08:22:17;21.30;51.80
34640;DHT22;22600;48.186;11.526;2023-03-01T08:24:43;21.30;51.80
34640;DHT22;22600;48.186;11.526;2023-03-01T08:27:08;21.20;51.10
34640;DHT22;22600;48.186;11.526;2023-03-01T08:29:34;21.30;51.70
34640;DHT22;22600;48.186;11.526;2023-03-01T08:32:00;21.20;51.10
34640;DHT22;22600;48.186;11.526;2023-03-01T08:34:25;21.30;51.20
34640;DHT22;22600;48.186;11.526;2023-03-01T08:39:19;21.20;51.00
34640;DHT22;22600;48.186;11.526;2023-03-01T08:41:45;21.30;51.00
34640;DHT22;22600;48.186;11.526;2023-03-01T08:44:13;21.20;51.00
34640;DHT22;22600;48.186;11.526;2023-03-01T08:46:40;21.30;51.10
34640;DHT22;22600;48.186;11.526;2023-03-01T08:49:08;21.30;51.00
34640;DHT22;22600;48.186;11.526;2023-03-01T08:51:34;21.30;51.00
34640;DHT22;22600;48.186;11.526;2023-03-01T08:54:02;21.30;51.50
34640;DHT22;22600;48.186;11.526;2023-03-01T08:56:28;21.20;51.40
34640;DHT22;22600;48.186;11.526;2023-03-01T08:58:54;21.30;51.00
34640;DHT22;22600;48.186;11.526;2023-03-01T09:01:20;21.30;51.00
34640;DHT22;22600;48.186;11.526;2023-03-01T09:03:46;21.20;50.90
34640;DHT22;22600;48.186;11.526;2023-03-01T09:06:11;21.30;51.40
34640;DHT22;22600;48.186;11.526;2023-03-01T09:08:42;21.30;51.40
34640;DHT22;22600;48.186;11.526;2023-03-01T09:11:10;21.30;51.00
34640;DHT22;22600;48.186;11.526;2023-03-01T09:13:37;21.30;51.50
34640;DHT22;22600;48.186;11.526;2023-03-01T09:16:05;21.30;50.90
34640;DHT22;22600;48.186;11.526;2023-03-01T09:18:31;21.20;51.40
34640;DHT22;22600;48.186;11.526;2023-03-01T09:21:05;21.30;50.90
34640;DHT22;22600;48.186;11.526;2023-03-01T09:23:33;21.30;50.90
34640;DHT22;22600;48.186;11.526;2023-03-01T09:25:59;21.20;51.40
34640;DHT22;22600;48.186;11.526;2023-03-01T09:28:25;21.30;51.50
34640;DHT22;22600;48.186;11.526;2023-03-01T09:30:50;21.30;50.90
34640;DHT22;22600;48.186;11.526;2023-03-01T09:33:16;21.20;50.80
34640;DHT22;22600;48.186;11.526;2023-03-01T09:35:41;21.30;50.90
34640;DHT22;22600;48.186;11.526;2023-03-01T09:38:12;21.30;51.00
34640;DHT22;22600;48.186;11.526;2023-03-01T09:40:42;21.30;50.90
34640;DHT22;22600;48.186;11.526;2023-03-01T09:43:43;21.30;51.40
34640;DHT22;22600;48.186;11.526;2023-03-01T09:46:11;21.30;51.40
34640;DHT22;22600;48.186;11.526;2023-03-01T09:48:43;21.30;51.40
34640;DHT22;22600;48.186;11.526;2023-03-01T09:51:30;21.30;51.40
34640;DHT22;22600;48.186;11.526;2023-03-01T09:53:56;21.30;51.00
34640;DHT22;22600;48.186;11.526;2023-03-01T09:59:22;21.30;50.80
34640;DHT22;22600;48.186;11.526;2023-03-01T10:05:04;21.30;51.20
34640;DHT22;22600;48.186;11.526;2023-03-01T10:10:38;21.30;51.40
34640;DHT22;22600;48.186;11.526;2023-03-01T10:13:17;21.30;51.90
34640;DHT22;22600;48.186;11.526;2023-03-01T10:16:01;21.30;51.70
34640;DHT22;22600;48.186;11.526;2023-03-01T10:18:30;21.30;52.20
34640;DHT22;22600;48.186;11.526;2023-03-01T10:21:25;21.30;52.40
34640;DHT22;22600;48.186;11.526;2023-03-01T10:23:51;21.30;52.50
34640;DHT22;22600;48.186;11.526;2023-03-01T10:26:53;21.40;52.30
34640;DHT22;22600;48.186;11.526;2023-03-01T10:29:25;21.30;52.30
34640;DHT22;22600;48.186;11.526;2023-03-01T10:31:52;21.30;52.40
34640;DHT22;22600;48.186;11.526;2023-03-01T10:34:33;21.30;52.50
34640;DHT22;22600;48.186;11.526;2023-03-01T10:40:06;21.40;52.20
34640;DHT22;22600;48.186;11.526;2023-03-01T10:42:39;22.90;53.50
34640;DHT22;22600;48.186;11.526;2023-03-01T10:45:37;21.40;52.40
34640;DHT22;22600;48.186;11.526;2023-03-01T10:48:24;21.40;53.00
34640;DHT22;22600;48.186;11.526;2023-03-01T10:53:28;21.40;53.10
34640;DHT22;22600;48.186;11.526;2023-03-01T10:56:21;21.40;52.70
34640;DHT22;22600;48.186;11.526;2023-03-01T10:59:01;21.40;53.20
34640;DHT22;22600;48.186;11.526;2023-03-01T11:01:29;21.40;53.20
34640;DHT22;22600;48.186;11.526;2023-03-01T11:04:23;21.40;53.20
34640;DHT22;22600;48.186;11.526;2023-03-01T11:06:58;21.40;53.40
34640;DHT22;22600;48.186;11.526;2023-03-01T11:09:25;21.40;53.50
34640;DHT22;22600;48.186;11.526;2023-03-01T11:11:55;21.40;53.00
34640;DHT22;22600;48.186;11.526;2023-03-01T11:15:15;21.50;53.50
34640;DHT22;22600;48.186;11.526;2023-03-01T11:17:26;21.50;53.50
34640;DHT22;22600;48.186;11.526;2023-03-01T11:22:32;21.40;53.00
34640;DHT22;22600;48.186;11.526;2023-03-01T11:24:59;21.50;53.60
34640;DHT22;22600;48.186;11.526;2023-03-01T11:27:28;21.50;53.20
34640;DHT22;22600;48.186;11.526;2023-03-01T11:33:03;21.40;53.20
34640;DHT22;22600;48.186;11.526;2023-03-01T11:35:30;21.50;53.70
34640;DHT22;22600;48.186;11.526;2023-03-01T11:40:34;21.50;53.80
34640;DHT22;22600;48.186;11.526;2023-03-01T11:43:37;21.50;53.80
34640;DHT22;22600;48.186;11.526;2023-03-01T11:49:17;21.50;53.40
34640;DHT22;22600;48.186;11.526;2023-03-01T11:52:03;21.50;53.40
34640;DHT22;22600;48.186;11.526;2023-03-01T11:54:57;21.40;53.80
34640;DHT22;22600;48.186;11.526;2023-03-01T12:22:06;21.50;53.60
34640;DHT22;22600;48.186;11.526;2023-03-01T12:30:42;21.40;53.10
34640;DHT22;22600;48.186;11.526;2023-03-01T12:46:53;21.40;54.00
34640;DHT22;22600;48.186;11.526;2023-03-01T12:49:27;21.40;54.20
34640;DHT22;22600;48.186;11.526;2023-03-01T12:52:16;21.50;54.70
34640;DHT22;22600;48.186;11.526;2023-03-01T12:54:44;21.50;54.80
34640;DHT22;22600;48.186;11.526;2023-03-01T13:08:20;21.50;54.70
34640;DHT22;22600;48.186;11.526;2023-03-01T13:10:51;21.50;54.30
34640;DHT22;22600;48.186;11.526;2023-03-01T13:13:24;21.50;54.30
34640;DHT22;22600;48.186;11.526;2023-03-01T13:15:50;21.50;54.80
34640;DHT22;22600;48.186;11.526;2023-03-01T13:20:55;21.50;54.80
34640;DHT22;22600;48.186;11.526;2023-03-01T13:33:53;21.50;54.80
34640;DHT22;22600;48.186;11.526;2023-03-01T13:39:40;21.50;54.20
34640;DHT22;22600;48.186;11.526;2023-03-01T13:42:30;21.50;54.20
34640;DHT22;22600;48.186;11.526;2023-03-01T13:44:57;21.50;54.70
34640;DHT22;22600;48.186;11.526;2023-03-01T13:47:22;21.50;54.20
34640;DHT22;22600;48.186;11.526;2023-03-01T13:50:00;21.40;54.60
34640;DHT22;22600;48.186;11.526;2023-03-01T13:55:03;21.50;54.40
34640;DHT22;22600;48.186;11.526;2023-03-01T13:57:38;21.50;54.90
34640;DHT22;22600;48.186;11.526;2023-03-01T14:00:25;21.50;54.30
34640;DHT22;22600;48.186;11.526;2023-03-01T14:03:02;21.50;54.40
34640;DHT22;22600;48.186;11.526;2023-03-01T14:05:29;21.50;54.90
34640;DHT22;22600;48.186;11.526;2023-03-01T14:07:55;23.70;56.00
34640;DHT22;22600;48.186;11.526;2023-03-01T14:10:21;21.50;55.00
34640;DHT22;22600;48.186;11.526;2023-03-01T14:15:42;21.50;54.50
34640;DHT22;22600;48.186;11.526;2023-03-01T14:18:22;21.60;54.60
34640;DHT22;22600;48.186;11.526;2023-03-01T14:20:52;21.60;55.10
34640;DHT22;22600;48.186;11.526;2023-03-01T14:23:20;21.60;55.10
34640;DHT22;22600;48.186;11.526;2023-03-01T14:25:51;21.70;55.20
34640;DHT22;22600;48.186;11.526;2023-03-01T14:28:25;21.60;55.10
34640;DHT22;22600;48.186;11.526;2023-03-01T14:31:00;21.60;55.20
34640;DHT22;22600;48.186;11.526;2023-03-01T14:33:28;21.60;54.80
34640;DHT22;22600;48.186;11.526;2023-03-01T14:38:32;21.60;54.70
34640;DHT22;22600;48.186;11.526;2023-03-01T14:41:05;21.60;53.90
34640;DHT22;22600;48.186;11.526;2023-03-01T14:43:31;21.60;54.90
34640;DHT22;22600;48.186;11.526;2023-03-01T14:45:57;21.60;52.90
34640;DHT22;22600;48.186;11.526;2023-03-01T14:48:23;21.60;51.50
34640;DHT22;22600;48.186;11.526;2023-03-01T14:50:50;21.60;52.00
34640;DHT22;22600;48.186;11.526;2023-03-01T14:53:23;21.50;51.00
34640;DHT22;22600;48.186;11.526;2023-03-01T14:55:54;21.60;51.10
34640;DHT22;22600;48.186;11.526;2023-03-01T14:58:24;21.60;51.60
34640;DHT22;22600;48.186;11.526;2023-03-01T15:00:55;21.60;51.20
34640;DHT22;22600;48.186;11.526;2023-03-01T15:03:33;21.50;51.70
34640;DHT22;22600;48.186;11.526;2023-03-01T15:06:03;21.60;51.90
34640;DHT22;22600;48.186;11.526;2023-03-01T15:08:30;21.60;52.00
34640;DHT22;22600;48.186;11.526;2023-03-01T15:13:32;21.60;51.90
34640;DHT22;22600;48.186;11.526;2023-03-01T15:16:02;21.60;52.40
34640;DHT22;22600;48.186;11.526;2023-03-01T15:18:29;21.60;52.50
34640;DHT22;22600;48.186;11.526;2023-03-01T15:20:56;22.40;53.00
34640;DHT22;22600;48.186;11.526;2023-03-01T15:23:30;21.50;52.70
34640;DHT22;22600;48.186;11.526;2023-03-01T15:25:57;21.50;52.80
34640;DHT22;22600;48.186;11.526;2023-03-01T15:28:49;21.50;52.90
34640;DHT22;22600;48.186;11.526;2023-03-01T15:31:24;21.60;53.10
34640;DHT22;22600;48.186;11.526;2023-03-01T15:33:51;21.60;53.20
34640;DHT22;22600;48.186;11.526;2023-03-01T15:36:43;21.60;52.90
34640;DHT22;22600;48.186;11.526;2023-03-01T15:41:56;21.60;53.00
34640;DHT22;22600;48.186;11.526;2023-03-01T15:44:30;21.50;53.50
34640;DHT22;22600;48.186;11.526;2023-03-01T15:46:56;21.60;53.60
34640;DHT22;22600;48.186;11.526;2023-03-01T15:51:56;21.60;53.30
34640;DHT22;22600;48.186;11.526;2023-03-01T15:54:25;21.60;53.40
34640;DHT22;22600;48.186;11.526;2023-03-01T15:56:52;21.60;53.90
34640;DHT22;22600;48.186;11.526;2023-03-01T15:59:18;21.60;53.50
34640;DHT22;22600;48.186;11.526;2023-03-01T16:01:44;21.60;53.50
34640;DHT22;22600;48.186;11.526;2023-03-01T16:04:12;21.60;54.00
34640;DHT22;22600;48.186;11.526;2023-03-01T16:06:46;21.60;53.70
34640;DHT22;22600;48.186;11.526;2023-03-01T16:09:12;21.60;54.20
34640;DHT22;22600;48.186;11.526;2023-03-01T16:11:38;21.60;53.80
34640;DHT22;22600;48.186;11.526;2023-03-01T16:14:05;21.60;53.90
34640;DHT22;22600;48.186;11.526;2023-03-01T16:16:30;21.60;54.00
34640;DHT22;22600;48.186;11.526;2023-03-01T16:18:56;21.60;54.40
34640;DHT22;22600;48.186;11.526;2023-03-01T16:21:23;21.60;54.40
34640;DHT22;22600;48.186;11.526;2023-03-01T16:23:51;21.60;54.00
34640;DHT22;22600;48.186;11.526;2023-03-01T16:26:16;21.60;54.00
34640;DHT22;22600;48.186;11.526;2023-03-01T16:28:43;21.60;54.50
34640;DHT22;22600;48.186;11.526;2023-03-01T16:31:09;21.70;54.20
34640;DHT22;22600;48.186;11.526;2023-03-01T16:33:35;21.70;54.20
34640;DHT22;22600;48.186;11.526;2023-03-01T16:36:10;21.70;54.20
34640;DHT22;22600;48.186;11.526;2023-03-01T16:38:36;21.60;54.60
34640;DHT22;22600;48.186;11.526;2023-03-01T16:41:03;21.70;54.70
34640;DHT22;22600;48.186;11.526;2023-03-01T16:43:29;21.70;54.30
34640;DHT22;22600;48.186;11.526;2023-03-01T16:45:55;21.70;54.30
34640;DHT22;22600;48.186;11.526;2023-03-01T16:48:21;21.70;54.80
34640;DHT22;22600;48.186;11.526;2023-03-01T16:50:56;21.70;54.80
34640;DHT22;22600;48.186;11.526;2023-03-01T16:53:22;21.70;54.90
34640;DHT22;22600;48.186;11.526;2023-03-01T16:55:56;21.70;54.90
34640;DHT22;22600;48.186;11.526;2023-03-01T16:58:22;21.70;54.30
34640;DHT22;22600;48.186;11.526;2023-03-01T17:00:53;21.70;54.80
34640;DHT22;22600;48.186;11.526;2023-03-01T17:03:20;21.70;54.70
34640;DHT22;22600;48.186;11.526;2023-03-01T17:05:46;21.70;54.00
34640;DHT22;22600;48.186;11.526;2023-03-01T17:08:12;21.70;53.90
34640;DHT22;22600;48.186;11.526;2023-03-01T17:10:38;21.70;53.70
34640;DHT22;22600;48.186;11.526;2023-03-01T17:13:03;21.70;53.70
34640;DHT22;22600;48.186;11.526;2023-03-01T17:15:29;23.10;54.80
34640;DHT22;22600;48.186;11.526;2023-03-01T17:17:54;20.60;53.50
34640;DHT22;22600;48.186;11.526;2023-03-01T17:20:20;21.60;53.80
34640;DHT22;22600;48.186;11.526;2023-03-01T17:22:46;21.50;53.30
34640;DHT22;22600;48.186;11.526;2023-03-01T17:25:12;21.60;53.30
34640;DHT22;22600;48.186;11.526;2023-03-01T17:27:38;21.60;53.40
34640;DHT22;22600;48.186;11.526;2023-03-01T17:30:05;21.60;53.90
34640;DHT22;22600;48.186;11.526;2023-03-01T17:32:31;21.60;53.50
34640;DHT22;22600;48.186;11.526;2023-03-01T17:34:56;21.60;54.00
34640;DHT22;22600;48.186;11.526;2023-03-01T17:37:22;21.60;54.10
34640;DHT22;22600;48.186;11.526;2023-03-01T17:39:47;19.80;52.90
34640;DHT22;22600;48.186;11.526;2023-03-01T17:42:13;21.60;54.30
34640;DHT22;22600;48.186;11.526;2023-03-01T17:44:39;21.60;53.90
34640;DHT22;22600;48.186;11.526;2023-03-01T17:47:05;21.60;54.10
34640;DHT22;22600;48.186;11.526;2023-03-01T17:49:30;21.60;54.50